Indian Creek, Florida
Current Conditions -  °F | °C
As of 10:53 AM on Tuesday 27 Jan 2015 (Local Time) from KOPF Reporting Station
Clear Clear  
Wind Chill: 17°   Ceiling: Unl
Heat Index: 17°   Visibility: 10mi
Dew Point: -1°   Wind: 15mph
Humidity: 29%   Direction: 310°NW
Pressure: 30.08"   Gusts: NA
Location:  25.882°N, 80.1292°W
Report Text: KOPF 271553Z 31013KT 10SM CLR 17/M01 A3008 RMK AO2 SLP187 T01721011 $
Loading
Personal Weather Stations






























Interactive Weather Map New forecast layout! Learn more

10-Day Weather Forecast

Advertisements
Track Severe Weather on mobile